sensor_id;sensor_type;location;lat;lon;timestamp;P1;durP1;ratioP1;P2;durP2;ratioP2
17947;SDS011;9099;47.958;11.366;2024-02-16T00:01:20;1.40;;;1.30;;
17947;SDS011;9099;47.958;11.366;2024-02-16T00:03:46;1.38;;;1.27;;
17947;SDS011;9099;47.958;11.366;2024-02-16T00:06:13;1.30;;;1.20;;
17947;SDS011;9099;47.958;11.366;2024-02-16T00:08:41;1.60;;;1.50;;
17947;SDS011;9099;47.958;11.366;2024-02-16T00:11:08;1.35;;;1.17;;
17947;SDS011;9099;47.958;11.366;2024-02-16T00:13:35;1.27;;;1.10;;
17947;SDS011;9099;47.958;11.366;2024-02-16T00:16:02;1.08;;;1.08;;
17947;SDS011;9099;47.958;11.366;2024-02-16T00:18:29;1.85;;;1.23;;
17947;SDS011;9099;47.958;11.366;2024-02-16T00:20:56;1.30;;;1.05;;
17947;SDS011;9099;47.958;11.366;2024-02-16T00:23:23;1.23;;;1.13;;
17947;SDS011;9099;47.958;11.366;2024-02-16T00:25:51;1.00;;;1.00;;
17947;SDS011;9099;47.958;11.366;2024-02-16T00:28:18;1.23;;;1.10;;
17947;SDS011;9099;47.958;11.366;2024-02-16T00:30:45;1.30;;;1.00;;
17947;SDS011;9099;47.958;11.366;2024-02-16T00:33:12;0.98;;;0.98;;
17947;SDS011;9099;47.958;11.366;2024-02-16T00:35:39;1.13;;;0.95;;
17947;SDS011;9099;47.958;11.366;2024-02-16T00:38:05;1.85;;;1.55;;
17947;SDS011;9099;47.958;11.366;2024-02-16T00:40:32;2.22;;;1.20;;
17947;SDS011;9099;47.958;11.366;2024-02-16T00:43:00;1.50;;;1.40;;
17947;SDS011;9099;47.958;11.366;2024-02-16T00:45:28;1.50;;;1.40;;
17947;SDS011;9099;47.958;11.366;2024-02-16T00:47:55;1.38;;;1.10;;
17947;SDS011;9099;47.958;11.366;2024-02-16T00:50:22;1.23;;;1.13;;
17947;SDS011;9099;47.958;11.366;2024-02-16T00:52:49;1.15;;;1.05;;
17947;SDS011;9099;47.958;11.366;2024-02-16T00:55:16;1.60;;;1.20;;
17947;SDS011;9099;47.958;11.366;2024-02-16T00:57:42;0.98;;;0.98;;
17947;SDS011;9099;47.958;11.366;2024-02-16T01:00:11;1.05;;;0.95;;
17947;SDS011;9099;47.958;11.366;2024-02-16T01:02:40;1.35;;;1.20;;
17947;SDS011;9099;47.958;11.366;2024-02-16T01:05:07;1.10;;;0.93;;
17947;SDS011;9099;47.958;11.366;2024-02-16T01:07:35;1.67;;;1.25;;
17947;SDS011;9099;47.958;11.366;2024-02-16T01:10:02;1.77;;;1.20;;
17947;SDS011;9099;47.958;11.366;2024-02-16T01:12:29;1.50;;;1.30;;
17947;SDS011;9099;47.958;11.366;2024-02-16T01:14:56;2.10;;;1.38;;
17947;SDS011;9099;47.958;11.366;2024-02-16T01:17:25;1.20;;;1.10;;
17947;SDS011;9099;47.958;11.366;2024-02-16T01:19:52;1.08;;;1.08;;
17947;SDS011;9099;47.958;11.366;2024-02-16T01:22:19;1.10;;;1.10;;
17947;SDS011;9099;47.958;11.366;2024-02-16T01:24:46;1.35;;;1.13;;
17947;SDS011;9099;47.958;11.366;2024-02-16T01:27:12;1.00;;;0.90;;
17947;SDS011;9099;47.958;11.366;2024-02-16T01:29:39;1.27;;;1.20;;
17947;SDS011;9099;47.958;11.366;2024-02-16T01:32:06;1.23;;;1.08;;
17947;SDS011;9099;47.958;11.366;2024-02-16T01:34:35;1.00;;;1.00;;
17947;SDS011;9099;47.958;11.366;2024-02-16T01:37:02;0.90;;;0.90;;
17947;SDS011;9099;47.958;11.366;2024-02-16T01:39:29;1.75;;;0.90;;
17947;SDS011;9099;47.958;11.366;2024-02-16T01:41:56;1.10;;;1.00;;
17947;SDS011;9099;47.958;11.366;2024-02-16T01:44:23;0.88;;;0.88;;
17947;SDS011;9099;47.958;11.366;2024-02-16T01:46:49;1.38;;;1.00;;
17947;SDS011;9099;47.958;11.366;2024-02-16T01:49:16;0.90;;;0.90;;
17947;SDS011;9099;47.958;11.366;2024-02-16T01:51:44;0.93;;;0.93;;
17947;SDS011;9099;47.958;11.366;2024-02-16T01:54:12;0.88;;;0.88;;
17947;SDS011;9099;47.958;11.366;2024-02-16T01:56:40;1.25;;;0.90;;
17947;SDS011;9099;47.958;11.366;2024-02-16T01:59:07;1.33;;;0.90;;
17947;SDS011;9099;47.958;11.366;2024-02-16T02:01:34;1.13;;;1.10;;
17947;SDS011;9099;47.958;11.366;2024-02-16T02:04:00;0.90;;;0.90;;
17947;SDS011;9099;47.958;11.366;2024-02-16T02:06:27;1.20;;;1.10;;
17947;SDS011;9099;47.958;11.366;2024-02-16T02:08:56;1.50;;;1.02;;
17947;SDS011;9099;47.958;11.366;2024-02-16T02:11:22;1.10;;;1.00;;
17947;SDS011;9099;47.958;11.366;2024-02-16T02:13:49;1.05;;;1.05;;
17947;SDS011;9099;47.958;11.366;2024-02-16T02:16:16;0.93;;;0.88;;
17947;SDS011;9099;47.958;11.366;2024-02-16T02:18:45;0.93;;;0.90;;
17947;SDS011;9099;47.958;11.366;2024-02-16T02:21:11;0.98;;;0.88;;
17947;SDS011;9099;47.958;11.366;2024-02-16T02:23:40;0.82;;;0.82;;
17947;SDS011;9099;47.958;11.366;2024-02-16T02:26:07;1.15;;;0.60;;
17947;SDS011;9099;47.958;11.366;2024-02-16T02:28:34;0.80;;;0.55;;
17947;SDS011;9099;47.958;11.366;2024-02-16T02:31:01;0.80;;;0.80;;
17947;SDS011;9099;47.958;11.366;2024-02-16T02:33:28;0.95;;;0.80;;
17947;SDS011;9099;47.958;11.366;2024-02-16T02:35:55;1.33;;;0.90;;
17947;SDS011;9099;47.958;11.366;2024-02-16T02:38:22;1.98;;;1.27;;
17947;SDS011;9099;47.958;11.366;2024-02-16T02:40:50;0.98;;;0.90;;
17947;SDS011;9099;47.958;11.366;2024-02-16T02:43:17;0.73;;;0.73;;
17947;SDS011;9099;47.958;11.366;2024-02-16T02:45:44;0.70;;;0.65;;
17947;SDS011;9099;47.958;11.366;2024-02-16T02:48:11;0.73;;;0.73;;
17947;SDS011;9099;47.958;11.366;2024-02-16T02:50:38;0.73;;;0.73;;
17947;SDS011;9099;47.958;11.366;2024-02-16T02:53:05;0.65;;;0.65;;
17947;SDS011;9099;47.958;11.366;2024-02-16T02:55:31;0.65;;;0.65;;
17947;SDS011;9099;47.958;11.366;2024-02-16T02:58:00;0.95;;;0.70;;
17947;SDS011;9099;47.958;11.366;2024-02-16T03:00:27;1.65;;;0.98;;
17947;SDS011;9099;47.958;11.366;2024-02-16T03:02:54;1.42;;;1.33;;
17947;SDS011;9099;47.958;11.366;2024-02-16T03:05:21;1.77;;;1.55;;
17947;SDS011;9099;47.958;11.366;2024-02-16T03:07:48;1.63;;;1.50;;
17947;SDS011;9099;47.958;11.366;2024-02-16T03:10:16;1.60;;;1.50;;
17947;SDS011;9099;47.958;11.366;2024-02-16T03:12:47;2.03;;;1.25;;
17947;SDS011;9099;47.958;11.366;2024-02-16T03:15:16;1.40;;;1.30;;
17947;SDS011;9099;47.958;11.366;2024-02-16T03:17:43;1.63;;;1.52;;
17947;SDS011;9099;47.958;11.366;2024-02-16T03:20:10;2.47;;;1.58;;
17947;SDS011;9099;47.958;11.366;2024-02-16T03:22:37;1.70;;;1.60;;
17947;SDS011;9099;47.958;11.366;2024-02-16T03:25:04;1.73;;;1.63;;
17947;SDS011;9099;47.958;11.366;2024-02-16T03:27:31;1.67;;;1.58;;
17947;SDS011;9099;47.958;11.366;2024-02-16T03:29:59;1.80;;;1.70;;
17947;SDS011;9099;47.958;11.366;2024-02-16T03:32:27;1.73;;;1.63;;
17947;SDS011;9099;47.958;11.366;2024-02-16T03:34:54;1.65;;;1.52;;
17947;SDS011;9099;47.958;11.366;2024-02-16T03:37:23;1.33;;;1.27;;
17947;SDS011;9099;47.958;11.366;2024-02-16T03:39:50;1.73;;;1.50;;
17947;SDS011;9099;47.958;11.366;2024-02-16T03:42:17;1.30;;;1.20;;
17947;SDS011;9099;47.958;11.366;2024-02-16T03:44:44;1.20;;;1.10;;
17947;SDS011;9099;47.958;11.366;2024-02-16T03:47:11;1.60;;;1.35;;
17947;SDS011;9099;47.958;11.366;2024-02-16T03:49:42;1.90;;;1.25;;
17947;SDS011;9099;47.958;11.366;2024-02-16T03:52:09;1.33;;;1.23;;
17947;SDS011;9099;47.958;11.366;2024-02-16T03:54:36;1.05;;;1.05;;
17947;SDS011;9099;47.958;11.366;2024-02-16T03:57:03;1.10;;;1.00;;
17947;SDS011;9099;47.958;11.366;2024-02-16T03:59:34;1.30;;;1.20;;
17947;SDS011;9099;47.958;11.366;2024-02-16T04:02:01;0.98;;;0.88;;
17947;SDS011;9099;47.958;11.366;2024-02-16T04:04:27;1.45;;;1.20;;
17947;SDS011;9099;47.958;11.366;2024-02-16T04:06:56;1.35;;;1.10;;
17947;SDS011;9099;47.958;11.366;2024-02-16T04:09:22;1.08;;;1.00;;
17947;SDS011;9099;47.958;11.366;2024-02-16T04:11:49;1.05;;;1.05;;
17947;SDS011;9099;47.958;11.366;2024-02-16T04:14:16;0.90;;;0.90;;
17947;SDS011;9099;47.958;11.366;2024-02-16T04:16:43;1.10;;;1.00;;
17947;SDS011;9099;47.958;11.366;2024-02-16T04:19:10;1.02;;;1.00;;
17947;SDS011;9099;47.958;11.366;2024-02-16T04:21:37;0.70;;;0.70;;
17947;SDS011;9099;47.958;11.366;2024-02-16T04:24:06;0.95;;;0.85;;
17947;SDS011;9099;47.958;11.366;2024-02-16T04:26:33;1.08;;;0.80;;
17947;SDS011;9099;47.958;11.366;2024-02-16T04:29:00;1.00;;;0.90;;
17947;SDS011;9099;47.958;11.366;2024-02-16T04:31:27;0.88;;;0.88;;
17947;SDS011;9099;47.958;11.366;2024-02-16T04:33:54;0.82;;;0.80;;
17947;SDS011;9099;47.958;11.366;2024-02-16T04:36:21;0.60;;;0.60;;
17947;SDS011;9099;47.958;11.366;2024-02-16T04:38:47;1.02;;;0.93;;
17947;SDS011;9099;47.958;11.366;2024-02-16T04:41:16;1.35;;;0.77;;
17947;SDS011;9099;47.958;11.366;2024-02-16T04:43:45;1.00;;;1.00;;
17947;SDS011;9099;47.958;11.366;2024-02-16T04:46:13;0.70;;;0.70;;
17947;SDS011;9099;47.958;11.366;2024-02-16T04:48:40;1.40;;;1.17;;
17947;SDS011;9099;47.958;11.366;2024-02-16T04:51:07;1.42;;;0.80;;
17947;SDS011;9099;47.958;11.366;2024-02-16T04:53:34;0.70;;;0.70;;
17947;SDS011;9099;47.958;11.366;2024-02-16T04:56:01;1.20;;;0.93;;
17947;SDS011;9099;47.958;11.366;2024-02-16T04:58:29;0.95;;;0.60;;
17947;SDS011;9099;47.958;11.366;2024-02-16T05:00:56;0.90;;;0.90;;
17947;SDS011;9099;47.958;11.366;2024-02-16T05:03:23;0.90;;;0.90;;
17947;SDS011;9099;47.958;11.366;2024-02-16T05:05:50;0.70;;;0.70;;
17947;SDS011;9099;47.958;11.366;2024-02-16T05:08:17;0.85;;;0.80;;
17947;SDS011;9099;47.958;11.366;2024-02-16T05:10:44;0.85;;;0.85;;
17947;SDS011;9099;47.958;11.366;2024-02-16T05:13:11;1.30;;;0.70;;
17947;SDS011;9099;47.958;11.366;2024-02-16T05:15:40;1.98;;;0.70;;
17947;SDS011;9099;47.958;11.366;2024-02-16T05:18:07;1.02;;;0.70;;
17947;SDS011;9099;47.958;11.366;2024-02-16T05:20:37;0.90;;;0.90;;
17947;SDS011;9099;47.958;11.366;2024-02-16T05:23:04;0.80;;;0.80;;
17947;SDS011;9099;47.958;11.366;2024-02-16T05:25:31;1.02;;;1.02;;
17947;SDS011;9099;47.958;11.366;2024-02-16T05:27:58;1.30;;;1.20;;
17947;SDS011;9099;47.958;11.366;2024-02-16T05:30:26;1.77;;;1.00;;
17947;SDS011;9099;47.958;11.366;2024-02-16T05:32:54;1.20;;;1.10;;
17947;SDS011;9099;47.958;11.366;2024-02-16T05:35:23;1.30;;;1.20;;
17947;SDS011;9099;47.958;11.366;2024-02-16T05:37:54;0.82;;;0.82;;
17947;SDS011;9099;47.958;11.366;2024-02-16T05:40:21;1.85;;;0.93;;
17947;SDS011;9099;47.958;11.366;2024-02-16T05:42:50;1.13;;;1.10;;
17947;SDS011;9099;47.958;11.366;2024-02-16T05:45:17;1.20;;;1.00;;
17947;SDS011;9099;47.958;11.366;2024-02-16T05:47:46;1.02;;;1.00;;
17947;SDS011;9099;47.958;11.366;2024-02-16T05:50:14;1.50;;;0.80;;
17947;SDS011;9099;47.958;11.366;2024-02-16T05:52:41;1.33;;;0.80;;
17947;SDS011;9099;47.958;11.366;2024-02-16T05:55:08;1.17;;;0.90;;
17947;SDS011;9099;47.958;11.366;2024-02-16T05:57:36;1.25;;;0.73;;
17947;SDS011;9099;47.958;11.366;2024-02-16T06:00:04;0.70;;;0.70;;
17947;SDS011;9099;47.958;11.366;2024-02-16T06:02:32;0.80;;;0.80;;
17947;SDS011;9099;47.958;11.366;2024-02-16T06:04:59;1.00;;;1.00;;
17947;SDS011;9099;47.958;11.366;2024-02-16T06:07:27;1.48;;;1.00;;
17947;SDS011;9099;47.958;11.366;2024-02-16T06:09:54;1.30;;;0.90;;
17947;SDS011;9099;47.958;11.366;2024-02-16T06:12:22;2.10;;;0.85;;
17947;SDS011;9099;47.958;11.366;2024-02-16T06:14:50;1.25;;;0.90;;
17947;SDS011;9099;47.958;11.366;2024-02-16T06:17:18;2.00;;;1.02;;
17947;SDS011;9099;47.958;11.366;2024-02-16T06:19:46;1.48;;;1.38;;
17947;SDS011;9099;47.958;11.366;2024-02-16T06:22:13;1.08;;;0.98;;
17947;SDS011;9099;47.958;11.366;2024-02-16T06:24:41;2.17;;;1.30;;
17947;SDS011;9099;47.958;11.366;2024-02-16T06:27:08;1.27;;;1.17;;
17947;SDS011;9099;47.958;11.366;2024-02-16T06:29:34;1.23;;;1.13;;
17947;SDS011;9099;47.958;11.366;2024-02-16T06:32:01;1.33;;;1.23;;
17947;SDS011;9099;47.958;11.366;2024-02-16T06:34:29;1.30;;;1.10;;
17947;SDS011;9099;47.958;11.366;2024-02-16T06:36:56;1.42;;;1.33;;
17947;SDS011;9099;47.958;11.366;2024-02-16T06:39:23;1.58;;;1.42;;
17947;SDS011;9099;47.958;11.366;2024-02-16T06:41:51;1.60;;;1.50;;
17947;SDS011;9099;47.958;11.366;2024-02-16T06:44:18;1.70;;;1.40;;
17947;SDS011;9099;47.958;11.366;2024-02-16T06:46:44;1.23;;;1.13;;
17947;SDS011;9099;47.958;11.366;2024-02-16T06:49:11;1.50;;;1.40;;
17947;SDS011;9099;47.958;11.366;2024-02-16T06:51:38;1.33;;;1.20;;
17947;SDS011;9099;47.958;11.366;2024-02-16T06:54:05;1.38;;;1.27;;
17947;SDS011;9099;47.958;11.366;2024-02-16T06:56:32;2.00;;;1.20;;
17947;SDS011;9099;47.958;11.366;2024-02-16T06:59:02;1.40;;;1.25;;
17947;SDS011;9099;47.958;11.366;2024-02-16T07:01:29;1.73;;;1.23;;
17947;SDS011;9099;47.958;11.366;2024-02-16T07:03:55;1.58;;;1.48;;
17947;SDS011;9099;47.958;11.366;2024-02-16T07:06:22;1.50;;;1.40;;
17947;SDS011;9099;47.958;11.366;2024-02-16T07:08:49;1.98;;;1.15;;
17947;SDS011;9099;47.958;11.366;2024-02-16T07:11:16;1.60;;;1.20;;
17947;SDS011;9099;47.958;11.366;2024-02-16T07:13:43;1.20;;;1.10;;
17947;SDS011;9099;47.958;11.366;2024-02-16T07:16:12;1.40;;;1.30;;
17947;SDS011;9099;47.958;11.366;2024-02-16T07:18:39;1.60;;;1.23;;
17947;SDS011;9099;47.958;11.366;2024-02-16T07:21:07;1.38;;;1.25;;
17947;SDS011;9099;47.958;11.366;2024-02-16T07:26:57;2.72;;;1.15;;
17947;SDS011;9099;47.958;11.366;2024-02-16T07:29:24;1.63;;;1.15;;
17947;SDS011;9099;47.958;11.366;2024-02-16T07:31:53;1.10;;;1.00;;
17947;SDS011;9099;47.958;11.366;2024-02-16T07:34:21;1.80;;;0.93;;
17947;SDS011;9099;47.958;11.366;2024-02-16T07:36:48;0.90;;;0.90;;
17947;SDS011;9099;47.958;11.366;2024-02-16T07:39:15;1.38;;;0.80;;
17947;SDS011;9099;47.958;11.366;2024-02-16T07:41:41;1.58;;;1.13;;
17947;SDS011;9099;47.958;11.366;2024-02-16T07:44:08;1.23;;;0.98;;
17947;SDS011;9099;47.958;11.366;2024-02-16T07:46:39;1.48;;;1.20;;
17947;SDS011;9099;47.958;11.366;2024-02-16T07:49:08;1.20;;;1.10;;
17947;SDS011;9099;47.958;11.366;2024-02-16T07:51:36;2.65;;;1.20;;
17947;SDS011;9099;47.958;11.366;2024-02-16T07:54:03;1.92;;;1.20;;
17947;SDS011;9099;47.958;11.366;2024-02-16T07:56:31;1.48;;;1.20;;
17947;SDS011;9099;47.958;11.366;2024-02-16T07:58:57;1.80;;;1.40;;
17947;SDS011;9099;47.958;11.366;2024-02-16T08:01:25;1.30;;;1.20;;
17947;SDS011;9099;47.958;11.366;2024-02-16T08:03:52;1.65;;;1.33;;
17947;SDS011;9099;47.958;11.366;2024-02-16T08:06:20;1.30;;;1.30;;
17947;SDS011;9099;47.958;11.366;2024-02-16T08:08:51;2.35;;;1.48;;
17947;SDS011;9099;47.958;11.366;2024-02-16T08:11:18;1.40;;;1.20;;
17947;SDS011;9099;47.958;11.366;2024-02-16T08:13:46;1.40;;;1.30;;
17947;SDS011;9099;47.958;11.366;2024-02-16T08:16:13;1.30;;;1.20;;
17947;SDS011;9099;47.958;11.366;2024-02-16T08:18:40;1.60;;;1.50;;
17947;SDS011;9099;47.958;11.366;2024-02-16T08:21:09;2.28;;;1.30;;
17947;SDS011;9099;47.958;11.366;2024-02-16T08:23:37;1.20;;;1.20;;
17947;SDS011;9099;47.958;11.366;2024-02-16T08:26:04;2.03;;;1.30;;
17947;SDS011;9099;47.958;11.366;2024-02-16T08:28:31;1.48;;;1.38;;
17947;SDS011;9099;47.958;11.366;2024-02-16T08:30:58;1.70;;;1.60;;
17947;SDS011;9099;47.958;11.366;2024-02-16T08:33:25;1.77;;;1.60;;
17947;SDS011;9099;47.958;11.366;2024-02-16T08:35:51;1.40;;;1.23;;
17947;SDS011;9099;47.958;11.366;2024-02-16T08:38:18;3.03;;;1.77;;
17947;SDS011;9099;47.958;11.366;2024-02-16T08:40:47;2.00;;;1.90;;
17947;SDS011;9099;47.958;11.366;2024-02-16T08:43:17;3.45;;;1.98;;
17947;SDS011;9099;47.958;11.366;2024-02-16T08:45:44;1.75;;;1.65;;
17947;SDS011;9099;47.958;11.366;2024-02-16T08:48:10;2.70;;;2.00;;
17947;SDS011;9099;47.958;11.366;2024-02-16T08:50:37;2.10;;;1.90;;
17947;SDS011;9099;47.958;11.366;2024-02-16T08:53:04;2.20;;;2.10;;
17947;SDS011;9099;47.958;11.366;2024-02-16T08:55:31;4.80;;;2.75;;
17947;SDS011;9099;47.958;11.366;2024-02-16T08:57:59;3.30;;;2.97;;
17947;SDS011;9099;47.958;11.366;2024-02-16T09:00:26;2.38;;;2.20;;
17947;SDS011;9099;47.958;11.366;2024-02-16T09:02:53;2.42;;;2.22;;
17947;SDS011;9099;47.958;11.366;2024-02-16T09:05:20;2.22;;;2.13;;
17947;SDS011;9099;47.958;11.366;2024-02-16T09:07:47;2.25;;;1.75;;
17947;SDS011;9099;47.958;11.366;2024-02-16T09:10:14;1.80;;;1.70;;
17947;SDS011;9099;47.958;11.366;2024-02-16T09:12:40;1.77;;;1.67;;
17947;SDS011;9099;47.958;11.366;2024-02-16T09:15:09;2.00;;;1.90;;
17947;SDS011;9099;47.958;11.366;2024-02-16T09:17:36;2.78;;;1.90;;
17947;SDS011;9099;47.958;11.366;2024-02-16T09:20:04;1.65;;;1.55;;
17947;SDS011;9099;47.958;11.366;2024-02-16T09:22:33;1.60;;;1.42;;
17947;SDS011;9099;47.958;11.366;2024-02-16T09:25:01;1.50;;;1.40;;
17947;SDS011;9099;47.958;11.366;2024-02-16T09:27:28;1.58;;;1.38;;
17947;SDS011;9099;47.958;11.366;2024-02-16T09:29:55;2.33;;;1.70;;
17947;SDS011;9099;47.958;11.366;2024-02-16T09:32:23;1.80;;;1.70;;
17947;SDS011;9099;47.958;11.366;2024-02-16T09:34:50;2.53;;;1.80;;
17947;SDS011;9099;47.958;11.366;2024-02-16T09:37:17;2.38;;;1.90;;
17947;SDS011;9099;47.958;11.366;2024-02-16T09:39:43;2.70;;;1.75;;
17947;SDS011;9099;47.958;11.366;2024-02-16T09:42:10;2.08;;;1.42;;
17947;SDS011;9099;47.958;11.366;2024-02-16T09:44:39;2.47;;;1.55;;
17947;SDS011;9099;47.958;11.366;2024-02-16T09:47:07;1.65;;;1.55;;
17947;SDS011;9099;47.958;11.366;2024-02-16T09:49:38;1.38;;;1.25;;
17947;SDS011;9099;47.958;11.366;2024-02-16T09:52:05;4.15;;;1.70;;
17947;SDS011;9099;47.958;11.366;2024-02-16T09:54:37;2.38;;;1.67;;
17947;SDS011;9099;47.958;11.366;2024-02-16T09:57:04;4.03;;;1.80;;
17947;SDS011;9099;47.958;11.366;2024-02-16T09:59:31;3.13;;;1.60;;
17947;SDS011;9099;47.958;11.366;2024-02-16T10:02:01;4.70;;;1.73;;
17947;SDS011;9099;47.958;11.366;2024-02-16T10:04:28;1.65;;;1.40;;
17947;SDS011;9099;47.958;11.366;2024-02-16T10:06:57;2.50;;;1.60;;
17947;SDS011;9099;47.958;11.366;2024-02-16T10:09:24;3.15;;;1.60;;
17947;SDS011;9099;47.958;11.366;2024-02-16T10:11:54;4.07;;;1.50;;
17947;SDS011;9099;47.958;11.366;2024-02-16T10:14:21;1.70;;;1.60;;
17947;SDS011;9099;47.958;11.366;2024-02-16T10:16:58;2.33;;;1.58;;
17947;SDS011;9099;47.958;11.366;2024-02-16T10:19:26;1.35;;;1.35;;
17947;SDS011;9099;47.958;11.366;2024-02-16T10:21:53;1.80;;;1.70;;
17947;SDS011;9099;47.958;11.366;2024-02-16T10:24:22;1.63;;;1.50;;
17947;SDS011;9099;47.958;11.366;2024-02-16T10:26:49;1.70;;;1.60;;
17947;SDS011;9099;47.958;11.366;2024-02-16T10:29:17;1.15;;;1.05;;
17947;SDS011;9099;47.958;11.366;2024-02-16T10:31:47;1.20;;;1.10;;
17947;SDS011;9099;47.958;11.366;2024-02-16T10:34:14;3.95;;;1.60;;
17947;SDS011;9099;47.958;11.366;2024-02-16T10:36:42;1.20;;;1.20;;
17947;SDS011;9099;47.958;11.366;2024-02-16T10:39:10;0.90;;;0.90;;
17947;SDS011;9099;47.958;11.366;2024-02-16T10:41:38;2.25;;;1.30;;
17947;SDS011;9099;47.958;11.366;2024-02-16T10:44:07;1.20;;;1.10;;
17947;SDS011;9099;47.958;11.366;2024-02-16T10:46:34;1.23;;;1.00;;
17947;SDS011;9099;47.958;11.366;2024-02-16T10:49:01;1.88;;;1.20;;
17947;SDS011;9099;47.958;11.366;2024-02-16T10:51:31;1.73;;;1.30;;
17947;SDS011;9099;47.958;11.366;2024-02-16T10:54:03;1.55;;;1.00;;
17947;SDS011;9099;47.958;11.366;2024-02-16T10:56:34;1.13;;;1.08;;
17947;SDS011;9099;47.958;11.366;2024-02-16T10:59:04;1.27;;;0.93;;
17947;SDS011;9099;47.958;11.366;2024-02-16T11:01:32;3.17;;;1.10;;
17947;SDS011;9099;47.958;11.366;2024-02-16T11:04:03;1.65;;;1.10;;
17947;SDS011;9099;47.958;11.366;2024-02-16T11:06:33;1.20;;;1.10;;
17947;SDS011;9099;47.958;11.366;2024-02-16T11:09:11;3.47;;;1.30;;
17947;SDS011;9099;47.958;11.366;2024-02-16T11:11:51;1.35;;;1.25;;
17947;SDS011;9099;47.958;11.366;2024-02-16T11:14:20;2.97;;;1.60;;
17947;SDS011;9099;47.958;11.366;2024-02-16T11:16:48;1.17;;;1.08;;
17947;SDS011;9099;47.958;11.366;2024-02-16T11:19:16;0.90;;;0.90;;
17947;SDS011;9099;47.958;11.366;2024-02-16T11:21:54;3.63;;;1.55;;
17947;SDS011;9099;47.958;11.366;2024-02-16T11:24:29;1.15;;;1.05;;
17947;SDS011;9099;47.958;11.366;2024-02-16T11:26:57;1.02;;;1.02;;
17947;SDS011;9099;47.958;11.366;2024-02-16T11:29:26;1.05;;;1.05;;
17947;SDS011;9099;47.958;11.366;2024-02-16T11:31:58;0.90;;;0.88;;
17947;SDS011;9099;47.958;11.366;2024-02-16T11:34:26;1.88;;;1.10;;
17947;SDS011;9099;47.958;11.366;2024-02-16T11:36:54;1.83;;;1.30;;
17947;SDS011;9099;47.958;11.366;2024-02-16T11:39:21;1.00;;;1.00;;
17947;SDS011;9099;47.958;11.366;2024-02-16T11:41:58;1.50;;;1.40;;
17947;SDS011;9099;47.958;11.366;2024-02-16T11:44:28;2.85;;;1.30;;
17947;SDS011;9099;47.958;11.366;2024-02-16T11:46:55;1.23;;;1.10;;
17947;SDS011;9099;47.958;11.366;2024-02-16T11:49:22;1.13;;;1.10;;
17947;SDS011;9099;47.958;11.366;2024-02-16T11:51:49;2.75;;;1.40;;
17947;SDS011;9099;47.958;11.366;2024-02-16T11:54:16;1.40;;;1.15;;
17947;SDS011;9099;47.958;11.366;2024-02-16T11:56:43;1.35;;;1.25;;
17947;SDS011;9099;47.958;11.366;2024-02-16T11:59:12;2.15;;;1.27;;
17947;SDS011;9099;47.958;11.366;2024-02-16T12:01:49;3.53;;;1.35;;
17947;SDS011;9099;47.958;11.366;2024-02-16T12:04:20;1.35;;;1.13;;
17947;SDS011;9099;47.958;11.366;2024-02-16T12:06:50;1.13;;;0.90;;
17947;SDS011;9099;47.958;11.366;2024-02-16T12:09:18;1.33;;;1.10;;
17947;SDS011;9099;47.958;11.366;2024-02-16T12:11:45;1.58;;;1.20;;
17947;SDS011;9099;47.958;11.366;2024-02-16T12:14:12;1.38;;;1.00;;
17947;SDS011;9099;47.958;11.366;2024-02-16T12:16:39;1.20;;;1.10;;
17947;SDS011;9099;47.958;11.366;2024-02-16T12:19:07;1.67;;;1.10;;
17947;SDS011;9099;47.958;11.366;2024-02-16T12:21:36;1.30;;;1.20;;
17947;SDS011;9099;47.958;11.366;2024-02-16T12:24:05;1.73;;;1.00;;
17947;SDS011;9099;47.958;11.366;2024-02-16T12:26:32;1.65;;;1.27;;
17947;SDS011;9099;47.958;11.366;2024-02-16T12:28:59;3.75;;;2.92;;
17947;SDS011;9099;47.958;11.366;2024-02-16T12:31:26;1.60;;;1.50;;
17947;SDS011;9099;47.958;11.366;2024-02-16T12:33:53;2.20;;;1.88;;
17947;SDS011;9099;47.958;11.366;2024-02-16T12:36:22;1.67;;;1.52;;
17947;SDS011;9099;47.958;11.366;2024-02-16T12:38:49;1.40;;;1.30;;
17947;SDS011;9099;47.958;11.366;2024-02-16T12:41:16;1.70;;;1.60;;
17947;SDS011;9099;47.958;11.366;2024-02-16T12:43:43;6.97;;;3.65;;
17947;SDS011;9099;47.958;11.366;2024-02-16T12:46:10;2.90;;;2.42;;
17947;SDS011;9099;47.958;11.366;2024-02-16T12:48:37;1.40;;;1.30;;
17947;SDS011;9099;47.958;11.366;2024-02-16T12:51:04;1.88;;;1.38;;
17947;SDS011;9099;47.958;11.366;2024-02-16T12:53:33;2.88;;;2.03;;
17947;SDS011;9099;47.958;11.366;2024-02-16T12:56:05;1.58;;;1.40;;
17947;SDS011;9099;47.958;11.366;2024-02-16T12:58:33;1.30;;;1.20;;
17947;SDS011;9099;47.958;11.366;2024-02-16T13:01:00;1.30;;;1.27;;
17947;SDS011;9099;47.958;11.366;2024-02-16T13:03:27;1.58;;;1.40;;
17947;SDS011;9099;47.958;11.366;2024-02-16T13:05:54;1.73;;;1.17;;
17947;SDS011;9099;47.958;11.366;2024-02-16T13:08:22;1.73;;;1.10;;
17947;SDS011;9099;47.958;11.366;2024-02-16T13:10:50;1.60;;;1.10;;
17947;SDS011;9099;47.958;11.366;2024-02-16T13:13:17;1.55;;;1.20;;
17947;SDS011;9099;47.958;11.366;2024-02-16T13:15:45;0.80;;;0.80;;
17947;SDS011;9099;47.958;11.366;2024-02-16T13:18:12;2.55;;;1.10;;
17947;SDS011;9099;47.958;11.366;2024-02-16T13:20:39;1.10;;;1.00;;
17947;SDS011;9099;47.958;11.366;2024-02-16T13:23:06;1.60;;;1.20;;
17947;SDS011;9099;47.958;11.366;2024-02-16T13:25:34;2.13;;;0.73;;
17947;SDS011;9099;47.958;11.366;2024-02-16T13:28:02;1.90;;;1.10;;
17947;SDS011;9099;47.958;11.366;2024-02-16T13:30:30;1.20;;;1.10;;
17947;SDS011;9099;47.958;11.366;2024-02-16T13:32:57;0.90;;;0.88;;
17947;SDS011;9099;47.958;11.366;2024-02-16T13:35:24;3.65;;;1.00;;
17947;SDS011;9099;47.958;11.366;2024-02-16T13:41:12;3.03;;;1.20;;
17947;SDS011;9099;47.958;11.366;2024-02-16T13:43:40;2.17;;;1.25;;
17947;SDS011;9099;47.958;11.366;2024-02-16T13:46:07;2.03;;;1.35;;
17947;SDS011;9099;47.958;11.366;2024-02-16T13:48:34;3.55;;;2.95;;
17947;SDS011;9099;47.958;11.366;2024-02-16T13:51:02;4.10;;;3.70;;
17947;SDS011;9099;47.958;11.366;2024-02-16T13:53:32;2.28;;;2.08;;
17947;SDS011;9099;47.958;11.366;2024-02-16T13:55:58;2.50;;;1.30;;
17947;SDS011;9099;47.958;11.366;2024-02-16T13:58:29;1.35;;;1.20;;
17947;SDS011;9099;47.958;11.366;2024-02-16T14:00:57;1.55;;;1.08;;
17947;SDS011;9099;47.958;11.366;2024-02-16T14:03:25;1.58;;;1.13;;
17947;SDS011;9099;47.958;11.366;2024-02-16T14:05:52;3.30;;;1.50;;
17947;SDS011;9099;47.958;11.366;2024-02-16T14:08:18;1.38;;;1.02;;
17947;SDS011;9099;47.958;11.366;2024-02-16T14:10:46;1.55;;;1.13;;
17947;SDS011;9099;47.958;11.366;2024-02-16T14:13:13;1.38;;;0.82;;
17947;SDS011;9099;47.958;11.366;2024-02-16T14:15:41;1.27;;;1.00;;
17947;SDS011;9099;47.958;11.366;2024-02-16T14:18:09;1.55;;;1.20;;
17947;SDS011;9099;47.958;11.366;2024-02-16T14:20:36;2.47;;;1.10;;
17947;SDS011;9099;47.958;11.366;2024-02-16T14:23:03;1.75;;;1.20;;
17947;SDS011;9099;47.958;11.366;2024-02-16T14:25:33;1.05;;;0.93;;
17947;SDS011;9099;47.958;11.366;2024-02-16T14:28:00;1.92;;;1.52;;
17947;SDS011;9099;47.958;11.366;2024-02-16T14:30:27;1.20;;;1.10;;
17947;SDS011;9099;47.958;11.366;2024-02-16T14:32:54;2.13;;;1.08;;
17947;SDS011;9099;47.958;11.366;2024-02-16T14:35:22;2.55;;;1.55;;
17947;SDS011;9099;47.958;11.366;2024-02-16T14:37:49;1.38;;;1.17;;
17947;SDS011;9099;47.958;11.366;2024-02-16T14:40:16;2.47;;;1.65;;
17947;SDS011;9099;47.958;11.366;2024-02-16T14:42:43;3.75;;;2.08;;
17947;SDS011;9099;47.958;11.366;2024-02-16T14:45:10;7.32;;;3.70;;
17947;SDS011;9099;47.958;11.366;2024-02-16T14:47:44;18.65;;;3.83;;
17947;SDS011;9099;47.958;11.366;2024-02-16T14:50:11;15.38;;;4.88;;
17947;SDS011;9099;47.958;11.366;2024-02-16T14:52:39;4.72;;;2.47;;
17947;SDS011;9099;47.958;11.366;2024-02-16T14:55:07;20.25;;;7.75;;
17947;SDS011;9099;47.958;11.366;2024-02-16T14:57:35;18.77;;;6.13;;